Hauptseite
METAR-TAF:

METAR-TAF

Flughäfen :

Schaffen

Diest, Belgien

Breite: 51-00N, Länge: 005-04E, Höhe: 30 m

Beobachtung

Neuester Wetterbericht von vor 22 Minuten, um 12:25 UTC
Wind 9 kt aus Nord
Temperatur 15°C
Luftfeuchtigkeit 63%
Luftdruck 1032 hPa
Sichtweite 10 km oder mehr

METAR: EBDT 221225Z AUTO 36009KT 9999 FEW035/// BKN044/// 15/08 Q1032 BLU

Zeit: 14:47 (12:47 UTC)


TAF: fehlend

Wetterbeobachtungen und Prognosen von mehr als 4000 Flughäfen (METAR und TAF Bericht).

Die verfügbaren Stationen werden durch gelbe und rote Markierungen auf der Karte dargestellt.

Führen Sie die Maus auf sie, um den Namen der Station zu sehen.

Darauf klicken, um die Beobachtung von Wetterbeobachtungen und Prognosen zu sehen.

Um die Karte zu ändern : klicken Sie auf den grünen Tasten mit einem schwarzen Kreuz Zum Vergrößern, auf den grünen Button mit einem Gedankenstrich zu verkleinern, oder auf die grünen Pfeile für benachbarte Karten.


METAR-TAF: